Pagrindinis puslapis
METAR-TAF:

METAR-TAF

Oro uostai :

Jask, Iranas

platuma: 26-38N, ilguma: 057-46E, Aukštis: 3 m

Dabartinis oras

Ataskaita buvo paskelbta 34 minutes, ne 03:00 UTC
Vėjas 12 kt iš Rytų/Pietryčių
Temperatūra 30°C
Drėgmė 89%
Slėgis 1000 hPa
Matomumas: 7000 m

METAR: OIZJ 160300Z 12012KT 7000 NSC 30/28 Q1000

Laikas: 08:04 (03:34 UTC)


TAF: trūkstamas

Orai ataskaitas ir orų prognozės (METAR, TAF).

turimą stotys yra geltonos ir raudonos taškus žemėlapyje.

Perkelti pele per norėdami pamatyti stoties vardą.

Tada spustelėkite, norėdami matyti oro stebėjimo ir prognozės.

Norėdami pakeisti žemėlapį: spustelėkite ant žalios mygtukų su juodo kryžiaus žemyn,; žalią mygtuką su brūkšneliu, jei norite nutolinti; arba žalių rodyklių gretimoms žemėlapius.


METAR-TAF: